Big Bear Station Historical Data
Daily Summary for December 08, 2019 Units:  English    Metric   Both
Next Day »
Daily Weekly Monthly Yearly Custom
  High: Low: Average:
Temperature: 39.9 °F 28.8 °F 35.9 °F
Dew Point: 38.5 °F 28.6 °F 35 °F
Humidity: 99% 88% 97%
Wind Speed: 9.4mph 0mph 1.7mph
Wind Gust: -999mph - -
Wind- - SW
Pressure: 23.49 in 23.39 in -
Precipitation: 0.22 in    
Historical Graphs
 
 
Tabular Data for December 08, 2019
Time Temperature Dew Point Pressure Wind Wind Speed Wind Gust Humidity Rainfall Rate (Hourly)
00:11 38.8 °F 38.5 °F 23.49 in North 3.2 mph -999 mph 99% 0.00 in
00:26 38.8 °F 38.5 °F 23.49 in Calm   -999 mph 99% 0.00 in
00:41 38.8 °F 38.5 °F 23.49 in SSE 2.7 mph -999 mph 99% 0.00 in
00:57 38.7 °F 38.4 °F 23.49 in South 1.1 mph -999 mph 99% 0.00 in
01:12 38.8 °F 38.5 °F 23.48 in SSW 2.7 mph -999 mph 99% 0.00 in
01:27 38.7 °F 38.2 °F 23.48 in SSW 4.2 mph -999 mph 98% 0.00 in
01:42 38.5 °F 38.2 °F 23.48 in WSW 1.1 mph -999 mph 99% 0.00 in
01:57 38.8 °F 38.3 °F 23.48 in SSE 2.2 mph -999 mph 98% 0.00 in
02:13 38.7 °F 38.4 °F 23.48 in NNW 3.7 mph -999 mph 99% 0.00 in
02:28 38.3 °F 38 °F 23.47 in Calm   -999 mph 99% 0.00 in
02:43 38.5 °F 38.2 °F 23.47 in WSW 1.7 mph -999 mph 99% 0.00 in
02:58 38.3 °F 38 °F 23.48 in Calm   -999 mph 99% 0.00 in
03:14 38.1 °F 37.8 °F 23.48 in South 2.2 mph -999 mph 99% 0.00 in
03:29 38.3 °F 38 °F 23.48 in SW 4.7 mph -999 mph 99% 0.00 in
03:44 38.1 °F 37.6 °F 23.47 in Calm   -999 mph 98% 0.00 in
04:00 37.9 °F 37.4 °F 23.47 in Calm   -999 mph 98% 0.00 in
04:15 37.9 °F 37.4 °F 23.47 in SW 2.2 mph -999 mph 98% 0.00 in
04:30 37.6 °F 36.8 °F 23.46 in Calm   -999 mph 97% 0.00 in
04:45 37.2 °F 36.4 °F 23.47 in NNW 9.4 mph -999 mph 97% 0.00 in
05:01 37.2 °F 36.7 °F 23.46 in NE 2.2 mph -999 mph 98% 0.00 in
05:16 37 °F 36.5 °F 23.47 in SSE 2.7 mph -999 mph 98% 0.00 in
05:31 37 °F 36.5 °F 23.46 in WSW 2.2 mph -999 mph 98% 0.00 in
05:47 37 °F 36.5 °F 23.47 in Calm   -999 mph 98% 0.00 in
06:02 36.9 °F 36.6 °F 23.47 in Calm   -999 mph 99% 0.00 in
06:17 36.9 °F 36.1 °F 23.47 in SSE 2.2 mph -999 mph 97% 0.00 in
06:32 36.9 °F 36.4 °F 23.47 in SSE 4.2 mph -999 mph 98% 0.00 in
06:48 36.7 °F 36.2 °F 23.47 in WNW 2.7 mph -999 mph 98% 0.00 in
07:03 36.3 °F 36 °F 23.47 in Calm   -999 mph 99% 0.00 in
07:18 36.3 °F 36 °F 23.48 in Calm   -999 mph 99% 0.00 in
07:33 36.3 °F 35.8 °F 23.48 in NW 3.2 mph -999 mph 98% 0.00 in
07:49 36.3 °F 35.5 °F 23.48 in Calm   -999 mph 97% 0.00 in
08:04 36.3 °F 35.5 °F 23.48 in Calm   -999 mph 97% 0.00 in
08:19 36.5 °F 35.7 °F 23.48 in Calm   -999 mph 97% 0.00 in
08:35 36.7 °F 35.1 °F 23.48 in NNW 7.3 mph -999 mph 94% 0.00 in
08:50 37 °F 35.7 °F 23.47 in SW 4.2 mph -999 mph 95% 0.00 in
09:05 37.4 °F 35.8 °F 23.47 in Calm   -999 mph 94% 0.00 in
09:20 37.9 °F 36.1 °F 23.48 in WSW 2.7 mph -999 mph 93% 0.00 in
09:36 38.7 °F 36.6 °F 23.48 in SW 1.1 mph -999 mph 92% 0.00 in
09:51 39 °F 36.3 °F 23.48 in Calm   -999 mph 90% 0.00 in
10:06 39.4 °F 36.4 °F 23.48 in NW 2.7 mph -999 mph 89% 0.00 in
10:21 39.9 °F 36.9 °F 23.47 in SSW 1.7 mph -999 mph 89% 0.00 in
10:37 39.9 °F 37.2 °F 23.47 in SSE 1.1 mph -999 mph 90% 0.00 in
10:52 38.8 °F 35.8 °F 23.47 in South 3.2 mph -999 mph 89% 0.00 in
11:07 39.2 °F 36.2 °F 23.46 in Calm   -999 mph 89% 0.00 in
11:22 39.6 °F 36.3 °F 23.45 in NW 4.7 mph -999 mph 88% 0.00 in
11:37 39.4 °F 36.7 °F 23.45 in ESE 1.7 mph -999 mph 90% 0.00 in
11:53 39.2 °F 36.2 °F 23.44 in SSW 2.2 mph -999 mph 89% 0.00 in
12:08 38.5 °F 36.1 °F 23.43 in SW 3.2 mph -999 mph 91% 0.00 in
12:23 38.3 °F 36.2 °F 23.43 in Calm   -999 mph 92% 0.00 in
12:39 38.5 °F 36.9 °F 23.42 in South 5.8 mph -999 mph 94% 0.00 in
12:54 38.7 °F 36.9 °F 23.42 in South 3.7 mph -999 mph 93% 0.00 in
13:10 39 °F 36.9 °F 23.41 in ESE 3.7 mph -999 mph 92% 0.00 in
13:25 38.1 °F 36.5 °F 23.41 in SSE 3.7 mph -999 mph 94% 0.00 in
13:40 37.4 °F 36.1 °F 23.40 in South 1.1 mph -999 mph 95% 0.00 in
13:55 37 °F 36 °F 23.40 in WSW 2.2 mph -999 mph 96% 0.00 in
14:10 36.9 °F 35.9 °F 23.40 in SSE 5.3 mph -999 mph 96% 0.00 in
14:26 36.7 °F 35.9 °F 23.40 in SSE 6.3 mph -999 mph 97% 0.00 in
14:41 36.5 °F 35.5 °F 23.40 in SSW 6.3 mph -999 mph 96% 0.00 in
14:56 36.3 °F 35.5 °F 23.40 in South 6.3 mph -999 mph 97% 0.00 in
15:11 36.1 °F 35.6 °F 23.40 in SSW 3.7 mph -999 mph 98% 0.00 in
15:27 36.1 °F 35.8 °F 23.39 in SW 1.1 mph -999 mph 99% 0.00 in
15:42 36 °F 35.7 °F 23.39 in SW 2.7 mph -999 mph 99% 0.00 in
15:57 35.1 °F 34.6 °F 23.40 in SSE 2.2 mph -999 mph 98% 0.00 in
16:12 34.2 °F 33.7 °F 23.40 in Calm   -999 mph 98% 0.00 in
16:27 33.4 °F 32.9 °F 23.40 in Calm   -999 mph 98% 0.00 in
16:43 33.3 °F 33 °F 23.40 in Calm   -999 mph 99% 0.00 in
16:58 33.3 °F 33 °F 23.39 in Calm   -999 mph 99% 0.00 in
17:13 33.6 °F 33.3 °F 23.39 in NW 2.2 mph -999 mph 99% 0.00 in
17:28 33.8 °F 33.5 °F 23.40 in SE 2.2 mph -999 mph 99% 0.00 in
17:43 33.6 °F 33.3 °F 23.40 in Calm   -999 mph 99% 0.00 in
17:59 33.4 °F 33.1 °F 23.40 in Calm   -999 mph 99% 0.00 in
18:14 33.3 °F 33 °F 23.40 in Calm   -999 mph 99% 0.00 in
18:29 33.3 °F 33 °F 23.40 in Calm   -999 mph 99% 0.00 in
18:44 33.3 °F 33 °F 23.40 in South 1.7 mph -999 mph 99% 0.00 in
18:59 32.9 °F 32.6 °F 23.40 in West 1.1 mph -999 mph 99% 0.00 in
19:15 32.7 °F 32.4 °F 23.39 in NNW 2.2 mph -999 mph 99% 0.00 in
19:30 32.7 °F 32.4 °F 23.40 in Calm   -999 mph 99% 0.00 in
19:45 32.7 °F 32.4 °F 23.39 in WNW 1.1 mph -999 mph 99% 0.00 in
20:00 32.7 °F 32.4 °F 23.40 in Calm   -999 mph 99% 0.00 in
20:15 32.4 °F 32.2 °F 23.40 in Calm   -999 mph 99% 0.00 in
20:31 32.2 °F 32 °F 23.40 in ESE 1.7 mph -999 mph 99% 0.00 in
20:46 32 °F 31.8 °F 23.40 in Calm   -999 mph 99% 0.00 in
21:01 31.6 °F 31.4 °F 23.39 in Calm   -999 mph 99% 0.00 in
21:16 31.3 °F 31.1 °F 23.40 in Calm   -999 mph 99% 0.00 in
21:32 31.1 °F 30.9 °F 23.40 in Calm   -999 mph 99% 0.00 in
21:47 31.1 °F 30.9 °F 23.41 in Calm   -999 mph 99% 0.00 in
22:02 31.1 °F 30.9 °F 23.41 in Calm   -999 mph 99% 0.00 in
22:17 30.7 °F 30.5 °F 23.40 in Calm   -999 mph 99% 0.00 in
22:32 30.2 °F 30 °F 23.40 in Calm   -999 mph 99% 0.00 in
22:48 29.8 °F 29.6 °F 23.41 in Calm   -999 mph 99% 0.00 in
23:03 29.5 °F 29.3 °F 23.40 in Calm   -999 mph 99% 0.00 in
23:18 29.1 °F 28.9 °F 23.41 in Calm   -999 mph 99% 0.00 in
23:33 29.1 °F 28.9 °F 23.40 in Calm   -999 mph 99% 0.00 in
23:48 28.8 °F 28.6 °F 23.41 in Calm   -999 mph 99% 0.00 in
Big Bear CA Weather